createdAt,value
2017-11-08T00:00:06.458Z,0
2017-11-08T00:00:46.824Z,0
2017-11-08T00:01:27.311Z,0
2017-11-08T00:02:07.729Z,0
2017-11-08T00:02:48.108Z,0
2017-11-08T00:03:28.569Z,0
2017-11-08T00:04:09.012Z,0
2017-11-08T00:04:49.452Z,0
2017-11-08T00:05:29.860Z,0
2017-11-08T00:06:10.304Z,0
2017-11-08T00:06:50.769Z,0
2017-11-08T00:07:31.204Z,0
2017-11-08T00:08:11.583Z,0
2017-11-08T00:08:51.992Z,0
2017-11-08T00:09:32.443Z,0
2017-11-08T00:10:12.914Z,0
2017-11-08T00:10:53.378Z,0
2017-11-08T00:11:33.815Z,0
2017-11-08T00:12:14.252Z,0
2017-11-08T00:12:54.643Z,0
2017-11-08T00:13:35.109Z,0
2017-11-08T00:14:15.670Z,0
2017-11-08T00:14:56.260Z,0
2017-11-08T00:15:36.709Z,0
2017-11-08T00:16:17.097Z,0
2017-11-08T00:16:57.613Z,0
2017-11-08T00:17:38.037Z,0
2017-11-08T00:18:18.403Z,0
2017-11-08T00:18:58.901Z,0
2017-11-08T00:19:39.347Z,0
2017-11-08T00:20:19.897Z,0
2017-11-08T00:21:00.518Z,0
2017-11-08T00:21:41.015Z,0
2017-11-08T00:22:21.444Z,0
2017-11-08T00:23:01.863Z,0
2017-11-08T00:23:42.361Z,0
2017-11-08T00:24:22.745Z,0
2017-11-08T00:25:03.110Z,0
2017-11-08T00:25:43.540Z,0
2017-11-08T00:26:24.509Z,0
2017-11-08T00:27:04.926Z,0
2017-11-08T00:27:45.250Z,0
2017-11-08T00:28:25.690Z,0
2017-11-08T00:29:06.157Z,0
2017-11-08T00:29:46.598Z,0
2017-11-08T00:30:27.082Z,0
2017-11-08T00:31:07.549Z,0
2017-11-08T00:31:48.074Z,0
2017-11-08T00:32:28.436Z,0
2017-11-08T00:33:08.898Z,0
2017-11-08T00:33:49.311Z,0
2017-11-08T00:34:29.659Z,0
2017-11-08T00:35:10.154Z,0
2017-11-08T00:35:50.625Z,0
2017-11-08T00:36:30.994Z,0
2017-11-08T00:37:11.491Z,0
2017-11-08T00:37:51.992Z,0
2017-11-08T00:38:32.440Z,0
2017-11-08T00:39:12.777Z,0
2017-11-08T00:39:53.338Z,0
2017-11-08T00:40:33.661Z,0
2017-11-08T00:41:14.087Z,0
2017-11-08T00:41:54.478Z,0
2017-11-08T00:42:35.014Z,0
2017-11-08T00:43:15.304Z,0
2017-11-08T00:43:55.716Z,0
2017-11-08T00:44:36.108Z,0
2017-11-08T00:45:16.507Z,0
2017-11-08T00:45:56.865Z,0
2017-11-08T00:46:37.438Z,0
2017-11-08T00:47:17.965Z,0
2017-11-08T00:47:58.339Z,0
2017-11-08T00:48:38.851Z,0
2017-11-08T00:49:19.272Z,0
2017-11-08T00:49:59.595Z,0
2017-11-08T00:50:39.985Z,0
2017-11-08T00:51:20.401Z,0
2017-11-08T00:52:00.812Z,0
2017-11-08T00:52:41.290Z,0
2017-11-08T00:53:22.261Z,0
2017-11-08T00:54:02.643Z,0
2017-11-08T00:54:43.539Z,0
2017-11-08T00:55:24.910Z,0
2017-11-08T00:56:05.668Z,0
2017-11-08T00:56:46.512Z,0
2017-11-08T00:57:26.931Z,0
2017-11-08T00:58:07.290Z,0
2017-11-08T00:58:47.752Z,0
2017-11-08T00:59:28.027Z,0
2017-11-08T01:00:08.567Z,0
2017-11-08T01:00:48.997Z,0
2017-11-08T01:01:29.508Z,0
2017-11-08T01:02:09.919Z,0
2017-11-08T01:02:50.392Z,0
2017-11-08T01:03:30.723Z,0
2017-11-08T01:04:11.163Z,0
2017-11-08T01:04:51.631Z,0
2017-11-08T01:05:32.053Z,0
2017-11-08T01:06:12.485Z,0
2017-11-08T01:06:52.911Z,0
2017-11-08T01:07:33.328Z,0
2017-11-08T01:08:13.887Z,0
2017-11-08T01:08:54.199Z,0
2017-11-08T01:09:34.647Z,0
2017-11-08T01:10:15.024Z,0
2017-11-08T01:10:55.411Z,0
2017-11-08T01:11:35.884Z,0
2017-11-08T01:12:16.324Z,0
2017-11-08T01:12:56.709Z,0
2017-11-08T01:13:37.195Z,0
2017-11-08T01:14:17.538Z,0
2017-11-08T01:14:57.994Z,0
2017-11-08T01:15:38.339Z,0
2017-11-08T01:16:18.825Z,0
2017-11-08T01:16:59.423Z,0
2017-11-08T01:17:39.999Z,0
2017-11-08T01:18:20.831Z,0
2017-11-08T01:19:01.419Z,0
2017-11-08T01:19:41.921Z,0
2017-11-08T01:20:22.276Z,0
2017-11-08T01:21:02.781Z,0
2017-11-08T01:21:43.132Z,0
2017-11-08T01:22:23.574Z,0
2017-11-08T01:23:04.095Z,0
2017-11-08T01:23:44.581Z,0
2017-11-08T01:24:24.957Z,0
2017-11-08T01:25:05.364Z,0
2017-11-08T01:25:45.795Z,0
2017-11-08T01:26:26.295Z,0
2017-11-08T01:27:06.918Z,0
2017-11-08T01:27:47.335Z,0
2017-11-08T01:28:28.060Z,0
2017-11-08T01:29:08.642Z,0
2017-11-08T01:29:49.019Z,0
2017-11-08T01:30:29.452Z,0
2017-11-08T01:31:09.916Z,0
2017-11-08T01:31:50.355Z,0
2017-11-08T01:32:30.743Z,0
2017-11-08T01:33:11.111Z,0
2017-11-08T01:33:51.544Z,0
2017-11-08T01:34:32.079Z,0
2017-11-08T01:35:12.451Z,0
2017-11-08T01:35:52.796Z,0
2017-11-08T01:36:33.258Z,0
2017-11-08T01:37:15.342Z,0
2017-11-08T01:37:55.820Z,0
2017-11-08T01:38:36.223Z,0
2017-11-08T01:39:16.617Z,0
2017-11-08T01:39:57.156Z,0
2017-11-08T01:40:37.538Z,0
2017-11-08T01:41:18.081Z,0
2017-11-08T01:41:58.563Z,0
2017-11-08T01:42:38.917Z,0
2017-11-08T01:43:19.312Z,0
2017-11-08T01:43:59.757Z,0
2017-11-08T01:44:40.170Z,0
2017-11-08T01:45:20.647Z,0
2017-11-08T01:46:00.966Z,0
2017-11-08T01:46:41.472Z,0
2017-11-08T01:47:21.894Z,0
2017-11-08T01:48:02.267Z,0
2017-11-08T01:48:42.660Z,0
2017-11-08T01:49:23.146Z,0
2017-11-08T01:50:03.501Z,0
2017-11-08T01:50:44.015Z,0
2017-11-08T01:51:27.084Z,0
2017-11-08T01:52:07.469Z,0
2017-11-08T01:52:47.833Z,0
2017-11-08T01:53:28.223Z,0
2017-11-08T01:54:08.634Z,0
2017-11-08T01:54:49.071Z,0
2017-11-08T01:55:29.464Z,0
2017-11-08T01:56:09.989Z,0
2017-11-08T01:56:50.468Z,0
2017-11-08T01:57:30.910Z,0
2017-11-08T01:58:11.250Z,0
2017-11-08T01:58:51.747Z,0
2017-11-08T01:59:32.275Z,0
2017-11-08T02:00:12.643Z,0
2017-11-08T02:00:53.193Z,0
2017-11-08T02:01:33.530Z,0
2017-11-08T02:02:13.972Z,0
2017-11-08T02:02:54.330Z,0
2017-11-08T02:03:34.720Z,0
2017-11-08T02:04:15.247Z,0
2017-11-08T02:04:55.733Z,0
2017-11-08T02:05:36.153Z,0
2017-11-08T02:06:16.658Z,0
2017-11-08T02:06:56.933Z,0
2017-11-08T02:07:37.394Z,0
2017-11-08T02:08:17.806Z,0
2017-11-08T02:08:58.171Z,0
2017-11-08T02:09:38.596Z,0
2017-11-08T02:10:19.034Z,0
2017-11-08T02:10:59.589Z,0
2017-11-08T02:11:40.052Z,0
2017-11-08T02:12:20.428Z,0
2017-11-08T02:13:00.849Z,0
2017-11-08T02:13:41.337Z,0
2017-11-08T02:14:21.863Z,0
2017-11-08T02:15:02.197Z,0
2017-11-08T02:15:42.581Z,0
2017-11-08T02:16:23.076Z,0
2017-11-08T02:17:03.424Z,0
2017-11-08T02:17:43.879Z,0
2017-11-08T02:18:24.314Z,0
2017-11-08T02:19:04.697Z,0
2017-11-08T02:19:45.128Z,0
2017-11-08T02:20:25.581Z,0
2017-11-08T02:21:05.992Z,0
2017-11-08T02:21:46.467Z,0
2017-11-08T02:22:26.822Z,0
2017-11-08T02:23:07.252Z,0
2017-11-08T02:23:47.661Z,0
2017-11-08T02:24:28.235Z,0
2017-11-08T02:25:08.593Z,0
2017-11-08T02:25:49.059Z,0
2017-11-08T02:26:29.509Z,0
2017-11-08T02:27:09.955Z,0
2017-11-08T02:27:50.292Z,0
2017-11-08T02:28:30.741Z,0
2017-11-08T02:29:11.188Z,0
2017-11-08T02:29:51.547Z,0
2017-11-08T02:30:32.002Z,0
2017-11-08T02:31:12.455Z,0
2017-11-08T02:31:52.916Z,0
2017-11-08T02:32:33.335Z,0
2017-11-08T02:33:13.659Z,0
2017-11-08T02:33:54.090Z,0
2017-11-08T02:34:34.540Z,0
2017-11-08T02:35:14.961Z,0
2017-11-08T02:35:55.467Z,0
2017-11-08T02:36:35.889Z,0
2017-11-08T02:37:16.360Z,0
2017-11-08T02:37:56.785Z,0
2017-11-08T02:38:37.177Z,0
2017-11-08T02:39:17.632Z,0
2017-11-08T02:39:58.085Z,0
2017-11-08T02:40:38.432Z,0
2017-11-08T02:41:18.912Z,0
2017-11-08T02:41:59.313Z,0
2017-11-08T02:42:39.763Z,0
2017-11-08T02:43:20.141Z,0
2017-11-08T02:44:00.473Z,0
2017-11-08T02:44:41.060Z,0
2017-11-08T02:45:21.427Z,0
2017-11-08T02:46:01.803Z,0
2017-11-08T02:46:42.255Z,0
2017-11-08T02:47:22.717Z,0
2017-11-08T02:48:03.159Z,0
2017-11-08T02:48:43.658Z,0
2017-11-08T02:49:24.036Z,0
2017-11-08T02:50:04.396Z,0
2017-11-08T02:50:44.755Z,0
2017-11-08T02:51:25.274Z,0
2017-11-08T02:52:05.712Z,0
2017-11-08T02:52:46.094Z,0
2017-11-08T02:53:26.521Z,0
2017-11-08T02:54:06.889Z,0
2017-11-08T02:54:47.332Z,0
2017-11-08T02:55:27.785Z,0
2017-11-08T02:56:08.231Z,0
2017-11-08T02:56:48.650Z,0
2017-11-08T02:57:29.042Z,0
2017-11-08T02:58:09.463Z,0
2017-11-08T02:58:49.881Z,0
2017-11-08T02:59:30.373Z,0
2017-11-08T03:00:10.736Z,0
2017-11-08T03:00:51.157Z,0
2017-11-08T03:01:31.559Z,0
2017-11-08T03:02:12.108Z,0
2017-11-08T03:02:52.412Z,0
2017-11-08T03:03:32.884Z,0
2017-11-08T03:04:13.279Z,0
2017-11-08T03:04:53.799Z,0
2017-11-08T03:05:34.220Z,0
2017-11-08T03:06:14.624Z,0
2017-11-08T03:06:55.086Z,0
2017-11-08T03:07:35.439Z,0
2017-11-08T03:08:15.894Z,0
2017-11-08T03:08:56.302Z,0
2017-11-08T03:09:36.816Z,0
2017-11-08T03:10:17.181Z,0
2017-11-08T03:10:57.564Z,0
2017-11-08T03:11:38.014Z,0
2017-11-08T03:12:18.547Z,0
2017-11-08T03:12:58.918Z,0
2017-11-08T03:13:39.340Z,0
2017-11-08T03:14:19.771Z,0
2017-11-08T03:15:00.151Z,0
2017-11-08T03:15:40.637Z,0
2017-11-08T03:16:20.963Z,0
2017-11-08T03:17:01.496Z,0
2017-11-08T03:17:41.924Z,0
2017-11-08T03:18:22.319Z,0
2017-11-08T03:19:02.755Z,0
2017-11-08T03:19:43.190Z,0
2017-11-08T03:20:23.598Z,0
2017-11-08T03:21:04.089Z,0
2017-11-08T03:21:44.549Z,0
2017-11-08T03:22:25.012Z,0
2017-11-08T03:23:05.323Z,0
2017-11-08T03:23:45.750Z,0
2017-11-08T03:24:26.111Z,0
2017-11-08T03:25:06.566Z,0
2017-11-08T03:25:47.044Z,0
2017-11-08T03:26:27.415Z,0
2017-11-08T03:27:07.825Z,0
2017-11-08T03:27:48.176Z,0
2017-11-08T03:28:28.626Z,0
2017-11-08T03:29:08.989Z,0
2017-11-08T03:29:49.429Z,0
2017-11-08T03:30:29.869Z,0
2017-11-08T03:31:10.245Z,0
2017-11-08T03:31:50.755Z,0
2017-11-08T03:32:31.194Z,0
2017-11-08T03:33:11.625Z,0
2017-11-08T03:33:52.092Z,0
2017-11-08T03:34:32.529Z,0
2017-11-08T03:35:12.894Z,0
2017-11-08T03:35:53.300Z,0
2017-11-08T03:36:33.747Z,0
2017-11-08T03:37:14.276Z,0
2017-11-08T03:37:54.724Z,0
2017-11-08T03:38:35.165Z,0
2017-11-08T03:39:15.592Z,0
2017-11-08T03:39:55.991Z,0
2017-11-08T03:40:36.404Z,0
2017-11-08T03:41:16.972Z,0
2017-11-08T03:41:57.330Z,0
2017-11-08T03:42:37.669Z,0
2017-11-08T03:43:18.136Z,0
2017-11-08T03:43:58.538Z,0
2017-11-08T03:44:39.042Z,0
2017-11-08T03:45:19.405Z,0
2017-11-08T03:45:59.829Z,0
2017-11-08T03:46:40.255Z,0
2017-11-08T03:47:20.730Z,0
2017-11-08T03:48:01.176Z,0
2017-11-08T03:48:41.565Z,0
2017-11-08T03:49:21.982Z,0
2017-11-08T03:50:02.437Z,0
2017-11-08T03:50:42.887Z,0
2017-11-08T03:51:23.309Z,0
2017-11-08T03:52:03.754Z,0
2017-11-08T03:52:44.187Z,0
2017-11-08T03:53:24.584Z,0
2017-11-08T03:54:05.023Z,0
2017-11-08T03:54:45.480Z,0
2017-11-08T03:55:25.884Z,0
2017-11-08T03:56:06.352Z,0
2017-11-08T03:56:46.710Z,0
2017-11-08T03:57:27.112Z,0
2017-11-08T03:58:07.515Z,0
2017-11-08T03:58:47.917Z,0
2017-11-08T03:59:28.484Z,0
2017-11-08T04:00:08.939Z,0
2017-11-08T04:00:49.357Z,0
2017-11-08T04:01:29.771Z,0
2017-11-08T04:02:10.199Z,0
2017-11-08T04:02:50.591Z,0
2017-11-08T04:41:01.165Z,0
2017-11-08T04:41:43.010Z,0
2017-11-08T04:42:23.438Z,0
2017-11-08T04:43:03.869Z,0
2017-11-08T04:43:44.278Z,0
2017-11-08T04:44:24.610Z,0
2017-11-08T04:45:05.097Z,0
2017-11-08T04:45:45.476Z,0
2017-11-08T04:46:25.912Z,0
2017-11-08T04:47:06.319Z,0
2017-11-08T04:47:46.751Z,0
2017-11-08T04:48:27.167Z,0
2017-11-08T04:49:07.545Z,0
2017-11-08T04:49:47.964Z,0
2017-11-08T04:50:28.424Z,0
2017-11-08T04:51:08.883Z,0
2017-11-08T04:51:49.247Z,0
2017-11-08T04:52:29.654Z,0
2017-11-08T04:53:10.100Z,0
2017-11-08T04:53:50.448Z,0
2017-11-08T04:54:30.898Z,0
2017-11-08T04:55:11.274Z,0
2017-11-08T04:55:51.826Z,0
2017-11-08T04:56:32.200Z,0
2017-11-08T04:57:12.601Z,0
2017-11-08T04:57:53.071Z,0
2017-11-08T04:58:33.518Z,0
2017-11-08T04:59:13.988Z,0
2017-11-08T04:59:54.408Z,0
2017-11-08T05:00:34.752Z,0
2017-11-08T05:01:15.177Z,0
2017-11-08T05:01:55.658Z,0
2017-11-08T05:02:36.071Z,0
2017-11-08T05:03:16.424Z,0
2017-11-08T05:03:56.925Z,0
2017-11-08T05:04:37.310Z,0
2017-11-08T05:05:17.670Z,0
2017-11-08T05:05:58.025Z,0
2017-11-08T05:06:38.454Z,0
2017-11-08T05:07:18.903Z,0
2017-11-08T05:07:59.267Z,0
2017-11-08T05:08:39.692Z,0
2017-11-08T05:09:20.166Z,0
2017-11-08T05:10:00.681Z,0
2017-11-08T05:10:41.211Z,0
2017-11-08T05:11:21.791Z,0
2017-11-08T05:12:02.224Z,0
2017-11-08T05:12:42.716Z,0
2017-11-08T05:13:23.153Z,0
2017-11-08T05:14:03.595Z,0
2017-11-08T05:14:43.922Z,0
2017-11-08T05:15:24.499Z,0
2017-11-08T05:16:04.908Z,0
2017-11-08T05:16:45.241Z,0
2017-11-08T05:17:25.749Z,0
2017-11-08T05:18:06.126Z,0
2017-11-08T05:18:46.721Z,0
2017-11-08T05:19:27.170Z,0
2017-11-08T05:20:07.519Z,0
2017-11-08T05:20:47.891Z,0
2017-11-08T05:21:28.352Z,0
2017-11-08T05:22:08.984Z,0
2017-11-08T05:22:49.326Z,0
2017-11-08T05:23:29.829Z,0
2017-11-08T05:24:10.817Z,0
2017-11-08T05:24:51.208Z,0
2017-11-08T05:25:31.708Z,0
2017-11-08T05:26:12.224Z,0
2017-11-08T05:26:52.673Z,0
2017-11-08T05:27:33.223Z,0
2017-11-08T05:28:13.860Z,0
2017-11-08T05:28:54.049Z,0
2017-11-08T05:29:34.534Z,0
2017-11-08T05:30:15.052Z,0
2017-11-08T05:30:55.593Z,0
2017-11-08T05:31:35.997Z,0
2017-11-08T05:32:16.836Z,0
2017-11-08T05:32:57.108Z,0
2017-11-08T05:33:37.944Z,0
2017-11-08T05:34:18.283Z,0
2017-11-08T05:34:58.737Z,0
2017-11-08T05:35:39.295Z,0
2017-11-08T05:36:19.741Z,0
2017-11-08T05:37:00.828Z,0
2017-11-08T05:37:41.234Z,0
2017-11-08T05:38:21.670Z,0
2017-11-08T05:39:02.239Z,0
2017-11-08T05:39:43.273Z,0
2017-11-08T05:40:24.055Z,0
2017-11-08T05:41:05.409Z,0
2017-11-08T05:41:45.813Z,0
2017-11-08T05:42:26.543Z,0
2017-11-08T05:43:07.935Z,0
2017-11-08T05:43:48.469Z,0
2017-11-08T05:44:29.132Z,0
2017-11-08T05:45:09.540Z,0
2017-11-08T05:45:50.927Z,0
2017-11-08T05:46:32.016Z,0
2017-11-08T05:47:12.442Z,0
2017-11-08T05:47:52.823Z,0
2017-11-08T05:48:33.441Z,0
2017-11-08T05:49:13.927Z,0
2017-11-08T05:49:54.454Z,0
2017-11-08T05:50:35.039Z,0
2017-11-08T05:51:15.841Z,0
2017-11-08T05:51:56.321Z,0
2017-11-08T05:52:37.809Z,0
2017-11-08T05:53:18.584Z,0
2017-11-08T05:53:59.091Z,0
2017-11-08T05:54:39.780Z,0
2017-11-08T05:55:21.721Z,0
2017-11-08T05:56:01.480Z,0
2017-11-08T05:56:42.979Z,0
2017-11-08T05:57:23.745Z,0
2017-11-08T05:58:05.326Z,0
2017-11-08T05:58:46.172Z,0
2017-11-08T05:59:26.898Z,0
2017-11-08T06:00:07.681Z,0
2017-11-08T06:00:47.973Z,0
2017-11-08T06:01:28.342Z,0
2017-11-08T06:02:08.774Z,0
2017-11-08T06:02:49.217Z,0
2017-11-08T06:03:29.715Z,0
2017-11-08T06:04:10.223Z,0
2017-11-08T06:04:50.582Z,0
2017-11-08T06:05:31.048Z,0
2017-11-08T06:06:11.573Z,0
2017-11-08T06:06:52.020Z,0
2017-11-08T06:07:33.170Z,0
2017-11-08T06:08:13.339Z,0
2017-11-08T06:08:53.743Z,0
2017-11-08T06:09:34.283Z,0
2017-11-08T06:10:14.887Z,0
2017-11-08T06:10:55.747Z,0
2017-11-08T06:11:36.291Z,0
2017-11-08T06:12:16.856Z,0
2017-11-08T06:12:57.539Z,0
2017-11-08T06:13:37.967Z,0
2017-11-08T06:14:19.003Z,0
2017-11-08T06:14:59.834Z,0
2017-11-08T06:15:40.489Z,0
2017-11-08T06:16:21.339Z,0
2017-11-08T06:17:02.010Z,0
2017-11-08T06:17:42.795Z,0
2017-11-08T06:18:23.663Z,0
2017-11-08T06:19:04.042Z,0
2017-11-08T06:19:44.611Z,0
2017-11-08T06:20:25.396Z,0
2017-11-08T06:21:05.651Z,0
2017-11-08T06:21:49.027Z,0
2017-11-08T06:22:29.530Z,0
2017-11-08T06:23:10.255Z,0
2017-11-08T06:23:51.006Z,4
2017-11-08T06:24:31.940Z,4
2017-11-08T06:25:12.766Z,4
2017-11-08T06:25:53.509Z,4
2017-11-08T06:26:34.068Z,0
2017-11-08T06:27:15.120Z,0
2017-11-08T06:27:56.671Z,4
2017-11-08T06:28:40.259Z,4
2017-11-08T06:29:21.241Z,4
2017-11-08T06:30:02.334Z,4
2017-11-08T06:30:43.517Z,4
2017-11-08T06:31:24.456Z,8
2017-11-08T06:32:05.494Z,8
2017-11-08T06:32:45.977Z,4
2017-11-08T06:33:26.672Z,8
2017-11-08T06:34:06.918Z,8
2017-11-08T06:34:47.504Z,8
2017-11-08T06:35:28.319Z,12
2017-11-08T06:36:09.070Z,8
2017-11-08T06:36:49.891Z,8
2017-11-08T06:37:31.192Z,8
2017-11-08T06:38:13.350Z,12
2017-11-08T06:38:54.493Z,8
2017-11-08T06:39:34.863Z,8
2017-11-08T06:40:16.378Z,12
2017-11-08T06:40:57.221Z,12
2017-11-08T06:41:38.169Z,16
2017-11-08T06:42:18.967Z,16
2017-11-08T06:42:59.793Z,16
2017-11-08T06:43:40.315Z,20
2017-11-08T06:44:21.326Z,20
2017-11-08T06:45:01.540Z,20
2017-11-08T06:45:42.222Z,24
2017-11-08T06:46:23.029Z,24
2017-11-08T06:47:03.544Z,28
2017-11-08T06:47:46.544Z,32
2017-11-08T06:48:27.159Z,40
2017-11-08T06:49:08.070Z,44
2017-11-08T06:49:49.435Z,48
2017-11-08T06:50:31.596Z,52
2017-11-08T06:51:12.729Z,56
2017-11-08T06:51:55.912Z,60
2017-11-08T06:52:36.951Z,64
2017-11-08T06:53:18.392Z,72
2017-11-08T06:54:02.521Z,76
2017-11-08T06:54:46.010Z,84
2017-11-08T06:55:28.617Z,96
2017-11-08T06:56:12.242Z,112
2017-11-08T06:56:57.446Z,124
2017-11-08T06:57:42.397Z,140
2017-11-08T06:58:24.412Z,144
2017-11-08T06:59:06.808Z,140
2017-11-08T06:59:48.499Z,136
2017-11-08T07:00:28.967Z,124
2017-11-08T07:01:10.156Z,112
2017-11-08T07:01:51.697Z,104
2017-11-08T07:02:32.054Z,100
2017-11-08T07:03:12.893Z,96
2017-11-08T07:03:55.509Z,100
2017-11-08T07:04:36.064Z,104
2017-11-08T07:05:19.322Z,104
2017-11-08T07:06:04.215Z,104
2017-11-08T07:06:45.635Z,100
2017-11-08T07:07:26.222Z,92
2017-11-08T07:08:14.660Z,84
2017-11-08T07:08:57.645Z,80
2017-11-08T07:09:38.533Z,76
2017-11-08T07:12:47.762Z,60
2017-11-08T07:14:02.492Z,56
2017-11-08T07:15:14.359Z,56
2017-11-08T07:16:42.543Z,52
2017-11-08T07:18:01.449Z,56
2017-11-08T07:19:27.200Z,60
2017-11-08T07:20:47.205Z,64
2017-11-08T07:22:15.506Z,64
2017-11-08T07:23:22.425Z,64
2017-11-08T07:24:36.030Z,64
2017-11-08T07:25:48.217Z,64
2017-11-08T07:27:00.024Z,68
2017-11-08T07:28:19.090Z,68
2017-11-08T07:31:16.121Z,84
2017-11-08T07:32:30.449Z,88
2017-11-08T07:33:48.176Z,88
2017-11-08T07:34:56.781Z,88
2017-11-08T07:36:17.833Z,84
2017-11-08T07:37:29.466Z,76
2017-11-08T07:38:38.879Z,80
2017-11-08T07:39:57.912Z,80
2017-11-08T07:41:29.009Z,84
2017-11-08T07:42:41.876Z,88
2017-11-08T07:43:56.678Z,96
2017-11-08T07:45:18.225Z,96
2017-11-08T07:46:03.141Z,100
2017-11-08T07:46:43.885Z,100
2017-11-08T07:47:24.052Z,100
2017-11-08T07:48:04.492Z,104
2017-11-08T07:48:45.030Z,104
2017-11-08T07:49:25.646Z,108
2017-11-08T07:50:06.048Z,116
2017-11-08T07:50:46.551Z,128
2017-11-08T07:51:26.870Z,140
2017-11-08T07:52:07.475Z,148
2017-11-08T07:52:47.920Z,156
2017-11-08T07:53:28.710Z,164
2017-11-08T07:54:09.322Z,164
2017-11-08T07:54:49.652Z,168
2017-11-08T07:58:07.051Z,168
2017-11-08T07:59:18.789Z,180
2017-11-08T08:00:29.689Z,184
2017-11-08T08:01:39.707Z,192
2017-11-08T08:02:53.628Z,188
2017-11-08T08:04:10.617Z,176
2017-11-08T08:05:22.793Z,168
2017-11-08T08:06:02.194Z,176
2017-11-08T08:06:42.488Z,184
2017-11-08T08:07:22.882Z,200
2017-11-08T08:08:03.467Z,204
2017-11-08T08:08:43.970Z,212
2017-11-08T08:09:24.368Z,220
2017-11-08T08:10:04.945Z,228
2017-11-08T08:10:45.276Z,240
2017-11-08T08:11:25.964Z,248
2017-11-08T08:12:06.573Z,252
2017-11-08T08:12:46.939Z,248
2017-11-08T08:13:27.247Z,252
2017-11-08T08:14:07.933Z,252
2017-11-08T08:14:48.262Z,260
2017-11-08T08:15:28.605Z,260
2017-11-08T08:16:09.195Z,260
2017-11-08T08:16:49.825Z,264
2017-11-08T08:17:30.472Z,268
2017-11-08T08:18:10.856Z,268
2017-11-08T08:18:51.523Z,264
2017-11-08T08:19:31.955Z,268
2017-11-08T08:20:17.807Z,276
2017-11-08T08:20:58.062Z,284
2017-11-08T08:21:38.512Z,288
2017-11-08T08:22:19.037Z,292
2017-11-08T08:22:59.598Z,300
2017-11-08T08:23:40.988Z,300
2017-11-08T08:24:21.384Z,300
2017-11-08T08:25:02.081Z,304
2017-11-08T08:25:42.627Z,304
2017-11-08T08:26:23.265Z,308
2017-11-08T08:27:03.878Z,304
2017-11-08T08:27:45.205Z,300
2017-11-08T08:28:25.730Z,296
2017-11-08T08:29:06.163Z,296
2017-11-08T08:29:47.454Z,288
2017-11-08T08:30:27.449Z,272
2017-11-08T08:31:08.163Z,260
2017-11-08T08:31:48.493Z,260
2017-11-08T08:32:29.871Z,256
2017-11-08T08:33:41.700Z,260
2017-11-08T08:34:22.061Z,268
2017-11-08T08:35:03.662Z,280
2017-11-08T08:35:47.979Z,288
2017-11-08T08:36:28.104Z,292
2017-11-08T08:37:09.216Z,308
2017-11-08T08:37:49.762Z,316
2017-11-08T08:38:30.840Z,320
2017-11-08T08:39:11.494Z,324
2017-11-08T08:39:52.147Z,324
2017-11-08T08:40:32.768Z,320
2017-11-08T08:41:13.348Z,316
2017-11-08T08:41:53.726Z,316
2017-11-08T08:42:34.467Z,316
2017-11-08T08:43:14.929Z,308
2017-11-08T08:43:57.947Z,308
2017-11-08T08:44:40.959Z,308
2017-11-08T08:45:21.507Z,304
2017-11-08T08:46:01.831Z,304
2017-11-08T08:46:42.486Z,296
2017-11-08T08:47:22.933Z,296
2017-11-08T08:48:03.481Z,280
2017-11-08T08:48:43.912Z,276
2017-11-08T08:49:24.698Z,276
2017-11-08T08:50:05.102Z,276
2017-11-08T08:50:45.544Z,296
2017-11-08T08:51:25.996Z,304
2017-11-08T08:52:06.635Z,300
2017-11-08T08:52:47.389Z,304
2017-11-08T08:53:27.879Z,296
2017-11-08T08:54:08.412Z,276
2017-11-08T08:54:48.937Z,260
2017-11-08T08:55:29.451Z,248
2017-11-08T08:56:09.956Z,232
2017-11-08T08:56:50.515Z,224
2017-11-08T08:57:30.934Z,224
2017-11-08T08:58:11.508Z,236
2017-11-08T08:58:51.987Z,240
2017-11-08T08:59:32.489Z,240
2017-11-08T09:00:12.864Z,248
2017-11-08T09:00:53.447Z,260
2017-11-08T09:01:33.864Z,264
2017-11-08T09:02:14.486Z,268
2017-11-08T09:02:54.992Z,280
2017-11-08T09:03:35.725Z,292
2017-11-08T09:04:16.306Z,284
2017-11-08T09:04:56.812Z,292
2017-11-08T09:05:37.296Z,288
2017-11-08T09:06:18.085Z,296
2017-11-08T09:06:58.479Z,308
2017-11-08T09:07:39.098Z,284
2017-11-08T09:08:19.497Z,292
2017-11-08T09:09:01.210Z,292
2017-11-08T09:09:41.618Z,280
2017-11-08T09:10:22.021Z,288
2017-11-08T09:11:02.519Z,288
2017-11-08T09:11:43.034Z,268
2017-11-08T09:12:23.393Z,268
2017-11-08T09:13:03.939Z,280
2017-11-08T09:13:44.462Z,284
2017-11-08T09:14:24.788Z,280
2017-11-08T09:15:05.266Z,280
2017-11-08T09:15:45.704Z,276
2017-11-08T09:16:26.346Z,272
2017-11-08T09:17:06.755Z,272
2017-11-08T09:17:47.286Z,276
2017-11-08T09:18:27.630Z,268
2017-11-08T09:19:08.289Z,268
2017-11-08T09:19:48.929Z,272
2017-11-08T09:20:29.282Z,280
2017-11-08T09:21:09.779Z,284
2017-11-08T09:21:50.240Z,276
2017-11-08T09:22:30.686Z,272
2017-11-08T09:23:11.242Z,272
2017-11-08T09:23:51.644Z,268
2017-11-08T09:24:32.171Z,264
2017-11-08T09:25:12.634Z,276
2017-11-08T09:25:53.101Z,280
2017-11-08T09:26:33.516Z,280
2017-11-08T09:27:14.098Z,292
2017-11-08T09:27:54.840Z,312
2017-11-08T09:28:35.248Z,320
2017-11-08T09:29:15.682Z,324
2017-11-08T09:29:56.114Z,328
2017-11-08T09:30:36.568Z,340
2017-11-08T09:31:16.984Z,336
2017-11-08T09:32:14.185Z,328
2017-11-08T09:32:54.210Z,344
2017-11-08T09:33:34.763Z,376
2017-11-08T09:36:30.827Z,420
2017-11-08T09:37:47.380Z,436
2017-11-08T09:41:04.625Z,456
2017-11-08T09:41:45.098Z,440
2017-11-08T09:42:25.912Z,432
2017-11-08T09:43:07.098Z,424
2017-11-08T09:43:47.558Z,444
2017-11-08T09:44:28.988Z,464
2017-11-08T09:45:16.762Z,508
2017-11-08T09:45:57.489Z,512
2017-11-08T09:46:38.970Z,540
2017-11-08T09:47:23.429Z,572
2017-11-08T09:48:06.173Z,592
2017-11-08T09:48:46.522Z,604
2017-11-08T09:49:27.095Z,600
2017-11-08T09:50:08.582Z,620
2017-11-08T09:50:49.856Z,628
2017-11-08T09:51:31.115Z,588
2017-11-08T09:52:11.487Z,616
2017-11-08T09:52:51.903Z,580
2017-11-08T09:53:33.832Z,568
2017-11-08T09:54:17.827Z,528
2017-11-08T09:54:58.845Z,512
2017-11-08T09:55:40.056Z,512
2017-11-08T09:56:24.127Z,520
2017-11-08T09:57:04.359Z,524
2017-11-08T09:57:47.976Z,508
2017-11-08T09:58:28.549Z,492
2017-11-08T09:59:09.274Z,552
2017-11-08T09:59:51.149Z,620
2017-11-08T10:00:31.567Z,632
2017-11-08T10:01:12.443Z,628
2017-11-08T10:41:46.097Z,388
2017-11-08T10:43:07.276Z,340
2017-11-08T10:43:48.171Z,332
2017-11-08T10:44:28.874Z,336
2017-11-08T10:45:09.685Z,344
2017-11-08T10:45:50.694Z,332
2017-11-08T10:46:31.146Z,316
2017-11-08T10:47:11.602Z,316
2017-11-08T10:47:52.117Z,304
2017-11-08T10:48:32.546Z,296
2017-11-08T10:49:12.970Z,284
2017-11-08T10:49:53.604Z,276
2017-11-08T10:50:33.963Z,272
2017-11-08T10:51:14.467Z,264
2017-11-08T10:51:55.005Z,260
2017-11-08T10:52:36.410Z,260
2017-11-08T10:53:16.889Z,256
2017-11-08T10:53:57.317Z,252
2017-11-08T10:54:37.749Z,244
2017-11-08T10:55:18.320Z,284
2017-11-08T10:55:58.673Z,300
2017-11-08T10:56:39.305Z,312
2017-11-08T10:57:20.705Z,320
2017-11-08T10:58:01.262Z,332
2017-11-08T10:58:42.395Z,324
2017-11-08T10:59:23.353Z,332
2017-11-08T11:00:03.524Z,356
2017-11-08T11:00:44.160Z,360
2017-11-08T11:01:24.499Z,356
2017-11-08T11:02:05.030Z,332
2017-11-08T11:02:45.438Z,336
2017-11-08T11:03:27.571Z,340
2017-11-08T11:04:08.107Z,344
2017-11-08T11:04:48.461Z,348
2017-11-08T11:05:28.929Z,340
2017-11-08T11:06:09.412Z,348
2017-11-08T11:06:50.049Z,356
2017-11-08T11:07:33.456Z,368
2017-11-08T11:22:46.448Z,416
2017-11-08T12:13:33.642Z,272
2017-11-08T12:14:14.473Z,292
2017-11-08T12:14:55.634Z,296
2017-11-08T12:15:36.633Z,308
2017-11-08T12:16:18.141Z,280
2017-11-08T12:16:58.837Z,284
2017-11-08T12:17:39.345Z,320
2017-11-08T12:18:20.615Z,328
2017-11-08T12:19:02.159Z,312
2017-11-08T12:19:42.250Z,308
2017-11-08T12:20:24.844Z,296
2017-11-08T12:21:05.789Z,292
2017-11-08T12:21:46.536Z,280
2017-11-08T12:22:28.230Z,264
2017-11-08T12:23:08.695Z,268
2017-11-08T12:23:49.232Z,296
2017-11-08T12:24:29.834Z,316
2017-11-08T12:25:10.428Z,304
2017-11-08T12:25:50.935Z,292
2017-11-08T12:26:31.346Z,268
2017-11-08T12:27:13.742Z,280
2017-11-08T12:27:54.324Z,304
2017-11-08T12:28:35.411Z,332
2017-11-08T12:29:16.054Z,332
2017-11-08T12:29:56.545Z,336
2017-11-08T12:30:37.090Z,344
2017-11-08T12:31:17.462Z,356
2017-11-08T12:31:57.917Z,364
2017-11-08T12:32:38.547Z,352
2017-11-08T12:33:18.935Z,364
2017-11-08T12:33:59.701Z,364
2017-11-08T12:34:40.239Z,364
2017-11-08T12:35:21.268Z,340
2017-11-08T12:36:01.860Z,344
2017-11-08T12:36:42.327Z,368
2017-11-08T12:37:23.819Z,352
2017-11-08T12:38:04.147Z,364
2017-11-08T12:38:44.975Z,364
2017-11-08T12:39:25.547Z,364